sensor_id;sensor_type;location;lat;lon;timestamp;P1;durP1;ratioP1;P2;durP2;ratioP2
12956;SDS011;6543;48.836;10.092;2024-03-02T00:00:50;19.80;;;13.57;;
12956;SDS011;6543;48.836;10.092;2024-03-02T00:03:18;17.87;;;12.70;;
12956;SDS011;6543;48.836;10.092;2024-03-02T00:05:48;20.30;;;13.57;;
12956;SDS011;6543;48.836;10.092;2024-03-02T00:08:19;18.43;;;14.17;;
12956;SDS011;6543;48.836;10.092;2024-03-02T00:10:50;17.83;;;13.17;;
12956;SDS011;6543;48.836;10.092;2024-03-02T00:13:20;20.57;;;14.37;;
12956;SDS011;6543;48.836;10.092;2024-03-02T00:15:51;20.10;;;13.67;;
12956;SDS011;6543;48.836;10.092;2024-03-02T00:18:19;22.60;;;14.40;;
12956;SDS011;6543;48.836;10.092;2024-03-02T00:20:47;19.47;;;14.00;;
12956;SDS011;6543;48.836;10.092;2024-03-02T00:23:14;18.30;;;14.27;;
12956;SDS011;6543;48.836;10.092;2024-03-02T00:25:43;16.30;;;13.67;;
12956;SDS011;6543;48.836;10.092;2024-03-02T00:28:14;17.03;;;13.43;;
12956;SDS011;6543;48.836;10.092;2024-03-02T00:33:33;17.87;;;13.77;;
12956;SDS011;6543;48.836;10.092;2024-03-02T00:36:01;17.60;;;13.70;;
12956;SDS011;6543;48.836;10.092;2024-03-02T00:38:28;19.53;;;13.37;;
12956;SDS011;6543;48.836;10.092;2024-03-02T00:40:56;18.37;;;13.50;;
12956;SDS011;6543;48.836;10.092;2024-03-02T00:43:44;17.83;;;13.50;;
12956;SDS011;6543;48.836;10.092;2024-03-02T00:46:16;20.67;;;15.07;;
12956;SDS011;6543;48.836;10.092;2024-03-02T00:48:48;21.33;;;14.67;;
12956;SDS011;6543;48.836;10.092;2024-03-02T00:51:20;21.10;;;14.83;;
12956;SDS011;6543;48.836;10.092;2024-03-02T00:53:47;18.17;;;14.50;;
12956;SDS011;6543;48.836;10.092;2024-03-02T00:56:15;20.20;;;14.67;;
12956;SDS011;6543;48.836;10.092;2024-03-02T00:58:42;21.23;;;14.87;;
12956;SDS011;6543;48.836;10.092;2024-03-02T01:01:09;20.03;;;14.17;;
12956;SDS011;6543;48.836;10.092;2024-03-02T01:03:37;22.43;;;15.13;;
12956;SDS011;6543;48.836;10.092;2024-03-02T01:06:04;22.67;;;14.43;;
12956;SDS011;6543;48.836;10.092;2024-03-02T01:08:32;21.83;;;15.20;;
12956;SDS011;6543;48.836;10.092;2024-03-02T01:10:59;21.47;;;16.07;;
12956;SDS011;6543;48.836;10.092;2024-03-02T01:13:26;22.40;;;16.10;;
12956;SDS011;6543;48.836;10.092;2024-03-02T01:15:53;21.47;;;15.23;;
12956;SDS011;6543;48.836;10.092;2024-03-02T01:18:20;22.60;;;16.13;;
12956;SDS011;6543;48.836;10.092;2024-03-02T01:20:50;18.87;;;14.00;;
12956;SDS011;6543;48.836;10.092;2024-03-02T01:23:17;21.53;;;15.00;;
12956;SDS011;6543;48.836;10.092;2024-03-02T01:25:45;22.73;;;15.67;;
12956;SDS011;6543;48.836;10.092;2024-03-02T01:28:12;23.27;;;14.97;;
12956;SDS011;6543;48.836;10.092;2024-03-02T01:30:39;22.13;;;15.53;;
12956;SDS011;6543;48.836;10.092;2024-03-02T01:33:08;22.77;;;15.43;;
12956;SDS011;6543;48.836;10.092;2024-03-02T01:35:38;20.77;;;14.60;;
12956;SDS011;6543;48.836;10.092;2024-03-02T01:38:08;20.70;;;14.07;;
12956;SDS011;6543;48.836;10.092;2024-03-02T01:40:46;20.30;;;14.00;;
12956;SDS011;6543;48.836;10.092;2024-03-02T01:43:20;21.00;;;14.57;;
12956;SDS011;6543;48.836;10.092;2024-03-02T01:45:52;21.53;;;14.97;;
12956;SDS011;6543;48.836;10.092;2024-03-02T01:48:29;22.17;;;14.43;;
12956;SDS011;6543;48.836;10.092;2024-03-02T01:50:59;18.37;;;13.90;;
12956;SDS011;6543;48.836;10.092;2024-03-02T01:53:40;20.77;;;14.93;;
12956;SDS011;6543;48.836;10.092;2024-03-02T01:56:10;20.27;;;14.30;;
12956;SDS011;6543;48.836;10.092;2024-03-02T01:58:39;22.57;;;15.20;;
12956;SDS011;6543;48.836;10.092;2024-03-02T02:01:10;22.10;;;14.47;;
12956;SDS011;6543;48.836;10.092;2024-03-02T02:03:44;21.17;;;15.30;;
12956;SDS011;6543;48.836;10.092;2024-03-02T02:06:12;22.83;;;16.33;;
12956;SDS011;6543;48.836;10.092;2024-03-02T02:08:47;23.63;;;15.40;;
12956;SDS011;6543;48.836;10.092;2024-03-02T02:11:16;23.03;;;15.47;;
12956;SDS011;6543;48.836;10.092;2024-03-02T02:13:44;20.23;;;14.70;;
12956;SDS011;6543;48.836;10.092;2024-03-02T02:16:17;22.50;;;15.53;;
12956;SDS011;6543;48.836;10.092;2024-03-02T02:18:50;25.50;;;16.20;;
12956;SDS011;6543;48.836;10.092;2024-03-02T02:21:24;24.50;;;17.67;;
12956;SDS011;6543;48.836;10.092;2024-03-02T02:23:52;24.50;;;16.47;;
12956;SDS011;6543;48.836;10.092;2024-03-02T02:26:22;23.97;;;15.90;;
12956;SDS011;6543;48.836;10.092;2024-03-02T02:28:55;23.00;;;15.63;;
12956;SDS011;6543;48.836;10.092;2024-03-02T02:31:38;23.80;;;15.77;;
12956;SDS011;6543;48.836;10.092;2024-03-02T02:34:14;23.97;;;15.80;;
12956;SDS011;6543;48.836;10.092;2024-03-02T02:36:50;24.87;;;16.50;;
12956;SDS011;6543;48.836;10.092;2024-03-02T02:39:21;28.20;;;17.53;;
12956;SDS011;6543;48.836;10.092;2024-03-02T02:41:52;24.20;;;16.50;;
12956;SDS011;6543;48.836;10.092;2024-03-02T02:44:20;27.07;;;17.13;;
12956;SDS011;6543;48.836;10.092;2024-03-02T02:46:56;26.57;;;15.90;;
12956;SDS011;6543;48.836;10.092;2024-03-02T02:49:25;23.77;;;17.77;;
12956;SDS011;6543;48.836;10.092;2024-03-02T02:52:00;25.80;;;17.13;;
12956;SDS011;6543;48.836;10.092;2024-03-02T02:54:32;27.00;;;17.80;;
12956;SDS011;6543;48.836;10.092;2024-03-02T02:57:04;25.33;;;17.03;;
12956;SDS011;6543;48.836;10.092;2024-03-02T02:59:35;25.53;;;17.27;;
12956;SDS011;6543;48.836;10.092;2024-03-02T03:02:09;24.90;;;15.37;;
12956;SDS011;6543;48.836;10.092;2024-03-02T03:04:42;23.33;;;16.37;;
12956;SDS011;6543;48.836;10.092;2024-03-02T03:07:10;25.73;;;17.00;;
12956;SDS011;6543;48.836;10.092;2024-03-02T03:09:37;26.00;;;17.93;;
12956;SDS011;6543;48.836;10.092;2024-03-02T03:12:04;25.63;;;17.37;;
12956;SDS011;6543;48.836;10.092;2024-03-02T03:14:31;27.00;;;18.10;;
12956;SDS011;6543;48.836;10.092;2024-03-02T03:16:58;27.53;;;18.97;;
12956;SDS011;6543;48.836;10.092;2024-03-02T03:19:26;30.33;;;17.87;;
12956;SDS011;6543;48.836;10.092;2024-03-02T03:21:52;27.20;;;17.63;;
12956;SDS011;6543;48.836;10.092;2024-03-02T03:24:20;27.17;;;17.77;;
12956;SDS011;6543;48.836;10.092;2024-03-02T03:26:47;27.93;;;18.23;;
12956;SDS011;6543;48.836;10.092;2024-03-02T03:29:14;29.97;;;19.20;;
12956;SDS011;6543;48.836;10.092;2024-03-02T03:31:41;27.97;;;17.80;;
12956;SDS011;6543;48.836;10.092;2024-03-02T03:34:08;30.10;;;18.43;;
12956;SDS011;6543;48.836;10.092;2024-03-02T03:36:34;30.77;;;18.90;;
12956;SDS011;6543;48.836;10.092;2024-03-02T03:39:02;28.93;;;17.97;;
12956;SDS011;6543;48.836;10.092;2024-03-02T03:41:32;27.63;;;17.80;;
12956;SDS011;6543;48.836;10.092;2024-03-02T03:43:59;24.70;;;16.27;;
12956;SDS011;6543;48.836;10.092;2024-03-02T03:46:26;22.87;;;15.80;;
12956;SDS011;6543;48.836;10.092;2024-03-02T03:48:52;26.77;;;18.40;;
12956;SDS011;6543;48.836;10.092;2024-03-02T03:51:20;24.27;;;16.60;;
12956;SDS011;6543;48.836;10.092;2024-03-02T03:53:48;26.60;;;16.87;;
12956;SDS011;6543;48.836;10.092;2024-03-02T03:56:15;23.30;;;15.63;;
12956;SDS011;6543;48.836;10.092;2024-03-02T03:58:43;24.90;;;16.10;;
12956;SDS011;6543;48.836;10.092;2024-03-02T04:01:10;23.23;;;16.33;;
12956;SDS011;6543;48.836;10.092;2024-03-02T04:03:36;24.17;;;16.67;;
12956;SDS011;6543;48.836;10.092;2024-03-02T04:06:04;23.90;;;16.27;;
12956;SDS011;6543;48.836;10.092;2024-03-02T04:08:31;22.90;;;16.43;;
12956;SDS011;6543;48.836;10.092;2024-03-02T04:10:58;23.83;;;16.03;;
12956;SDS011;6543;48.836;10.092;2024-03-02T04:13:25;25.67;;;16.33;;
12956;SDS011;6543;48.836;10.092;2024-03-02T04:15:53;24.70;;;16.13;;
12956;SDS011;6543;48.836;10.092;2024-03-02T04:18:20;23.87;;;16.47;;
12956;SDS011;6543;48.836;10.092;2024-03-02T04:20:45;24.13;;;15.93;;
12956;SDS011;6543;48.836;10.092;2024-03-02T04:23:12;26.17;;;16.73;;
12956;SDS011;6543;48.836;10.092;2024-03-02T04:25:39;25.30;;;16.17;;
12956;SDS011;6543;48.836;10.092;2024-03-02T04:28:06;24.90;;;17.13;;
12956;SDS011;6543;48.836;10.092;2024-03-02T04:30:32;30.80;;;18.60;;
12956;SDS011;6543;48.836;10.092;2024-03-02T04:33:01;26.40;;;17.07;;
12956;SDS011;6543;48.836;10.092;2024-03-02T04:35:28;23.23;;;16.07;;
12956;SDS011;6543;48.836;10.092;2024-03-02T04:37:55;23.83;;;17.07;;
12956;SDS011;6543;48.836;10.092;2024-03-02T04:40:22;26.17;;;16.37;;
12956;SDS011;6543;48.836;10.092;2024-03-02T04:42:49;24.40;;;15.77;;
12956;SDS011;6543;48.836;10.092;2024-03-02T04:45:15;27.73;;;17.37;;
12956;SDS011;6543;48.836;10.092;2024-03-02T04:47:42;25.60;;;17.20;;
12956;SDS011;6543;48.836;10.092;2024-03-02T04:50:10;25.50;;;16.73;;
12956;SDS011;6543;48.836;10.092;2024-03-02T04:52:37;25.13;;;15.87;;
12956;SDS011;6543;48.836;10.092;2024-03-02T04:55:04;26.87;;;16.93;;
12956;SDS011;6543;48.836;10.092;2024-03-02T04:57:54;26.17;;;16.57;;
12956;SDS011;6543;48.836;10.092;2024-03-02T05:00:21;25.10;;;16.33;;
12956;SDS011;6543;48.836;10.092;2024-03-02T05:02:48;26.20;;;15.77;;
12956;SDS011;6543;48.836;10.092;2024-03-02T05:05:16;23.63;;;15.80;;
12956;SDS011;6543;48.836;10.092;2024-03-02T05:07:43;24.27;;;16.13;;
12956;SDS011;6543;48.836;10.092;2024-03-02T05:10:09;32.50;;;18.00;;
12956;SDS011;6543;48.836;10.092;2024-03-02T05:12:37;25.47;;;16.00;;
12956;SDS011;6543;48.836;10.092;2024-03-02T05:15:17;23.13;;;16.00;;
12956;SDS011;6543;48.836;10.092;2024-03-02T05:17:44;22.27;;;15.20;;
12956;SDS011;6543;48.836;10.092;2024-03-02T05:20:11;27.10;;;16.47;;
12956;SDS011;6543;48.836;10.092;2024-03-02T05:22:39;25.70;;;16.60;;
12956;SDS011;6543;48.836;10.092;2024-03-02T05:25:06;22.93;;;15.90;;
12956;SDS011;6543;48.836;10.092;2024-03-02T05:27:34;22.67;;;15.60;;
12956;SDS011;6543;48.836;10.092;2024-03-02T05:30:01;25.97;;;17.57;;
12956;SDS011;6543;48.836;10.092;2024-03-02T05:32:28;25.60;;;16.10;;
12956;SDS011;6543;48.836;10.092;2024-03-02T05:34:55;22.80;;;15.37;;
12956;SDS011;6543;48.836;10.092;2024-03-02T05:37:22;22.80;;;15.47;;
12956;SDS011;6543;48.836;10.092;2024-03-02T05:39:50;22.87;;;14.73;;
12956;SDS011;6543;48.836;10.092;2024-03-02T05:42:17;24.70;;;14.67;;
12956;SDS011;6543;48.836;10.092;2024-03-02T05:44:43;22.27;;;14.60;;
12956;SDS011;6543;48.836;10.092;2024-03-02T05:47:10;18.77;;;12.23;;
12956;SDS011;6543;48.836;10.092;2024-03-02T05:49:37;20.73;;;14.10;;
12956;SDS011;6543;48.836;10.092;2024-03-02T05:52:04;19.30;;;13.93;;
12956;SDS011;6543;48.836;10.092;2024-03-02T05:54:32;20.83;;;14.27;;
12956;SDS011;6543;48.836;10.092;2024-03-02T05:57:00;22.10;;;14.47;;
12956;SDS011;6543;48.836;10.092;2024-03-02T05:59:41;23.33;;;15.73;;
12956;SDS011;6543;48.836;10.092;2024-03-02T06:02:09;19.80;;;13.37;;
12956;SDS011;6543;48.836;10.092;2024-03-02T06:04:35;22.00;;;15.37;;
12956;SDS011;6543;48.836;10.092;2024-03-02T06:07:02;19.50;;;14.03;;
12956;SDS011;6543;48.836;10.092;2024-03-02T06:09:29;20.33;;;13.60;;
12956;SDS011;6543;48.836;10.092;2024-03-02T06:11:56;21.37;;;14.43;;
12956;SDS011;6543;48.836;10.092;2024-03-02T06:14:24;21.63;;;14.50;;
12956;SDS011;6543;48.836;10.092;2024-03-02T06:16:50;22.77;;;15.40;;
12956;SDS011;6543;48.836;10.092;2024-03-02T06:19:17;21.33;;;13.97;;
12956;SDS011;6543;48.836;10.092;2024-03-02T06:21:44;20.00;;;13.13;;
12956;SDS011;6543;48.836;10.092;2024-03-02T06:24:11;20.13;;;13.57;;
12956;SDS011;6543;48.836;10.092;2024-03-02T06:26:36;21.10;;;13.50;;
12956;SDS011;6543;48.836;10.092;2024-03-02T06:29:04;19.73;;;13.67;;
12956;SDS011;6543;48.836;10.092;2024-03-02T06:31:32;20.53;;;14.37;;
12956;SDS011;6543;48.836;10.092;2024-03-02T06:33:59;20.47;;;13.57;;
12956;SDS011;6543;48.836;10.092;2024-03-02T06:36:26;19.93;;;13.60;;
12956;SDS011;6543;48.836;10.092;2024-03-02T06:38:52;19.80;;;14.77;;
12956;SDS011;6543;48.836;10.092;2024-03-02T06:41:19;21.73;;;13.77;;
12956;SDS011;6543;48.836;10.092;2024-03-02T06:43:46;20.23;;;13.43;;
12956;SDS011;6543;48.836;10.092;2024-03-02T06:46:13;19.57;;;13.77;;
12956;SDS011;6543;48.836;10.092;2024-03-02T06:48:41;19.50;;;13.47;;
12956;SDS011;6543;48.836;10.092;2024-03-02T06:51:08;19.70;;;13.33;;
12956;SDS011;6543;48.836;10.092;2024-03-02T06:53:36;20.20;;;13.13;;
12956;SDS011;6543;48.836;10.092;2024-03-02T06:56:02;17.27;;;12.43;;
12956;SDS011;6543;48.836;10.092;2024-03-02T06:58:30;17.60;;;12.97;;
12956;SDS011;6543;48.836;10.092;2024-03-02T07:00:57;19.07;;;12.70;;
12956;SDS011;6543;48.836;10.092;2024-03-02T07:03:25;17.67;;;12.40;;
12956;SDS011;6543;48.836;10.092;2024-03-02T07:05:53;18.60;;;13.40;;
12956;SDS011;6543;48.836;10.092;2024-03-02T07:08:20;18.70;;;13.20;;
12956;SDS011;6543;48.836;10.092;2024-03-02T07:10:47;18.43;;;13.23;;
12956;SDS011;6543;48.836;10.092;2024-03-02T07:13:14;16.80;;;13.23;;
12956;SDS011;6543;48.836;10.092;2024-03-02T07:15:41;18.80;;;12.57;;
12956;SDS011;6543;48.836;10.092;2024-03-02T07:18:30;17.80;;;12.13;;
12956;SDS011;6543;48.836;10.092;2024-03-02T07:20:59;17.03;;;12.07;;
12956;SDS011;6543;48.836;10.092;2024-03-02T07:23:26;16.20;;;11.93;;
12956;SDS011;6543;48.836;10.092;2024-03-02T07:25:53;18.53;;;13.60;;
12956;SDS011;6543;48.836;10.092;2024-03-02T07:28:21;14.67;;;10.37;;
12956;SDS011;6543;48.836;10.092;2024-03-02T07:30:57;15.73;;;12.13;;
12956;SDS011;6543;48.836;10.092;2024-03-02T07:33:24;15.27;;;10.17;;
12956;SDS011;6543;48.836;10.092;2024-03-02T07:35:51;15.13;;;12.13;;
12956;SDS011;6543;48.836;10.092;2024-03-02T07:38:20;16.60;;;11.87;;
12956;SDS011;6543;48.836;10.092;2024-03-02T07:40:47;14.77;;;11.27;;
12956;SDS011;6543;48.836;10.092;2024-03-02T07:43:15;15.30;;;11.23;;
12956;SDS011;6543;48.836;10.092;2024-03-02T07:45:42;16.07;;;11.50;;
12956;SDS011;6543;48.836;10.092;2024-03-02T07:48:09;14.30;;;11.30;;
12956;SDS011;6543;48.836;10.092;2024-03-02T07:50:36;14.53;;;10.83;;
12956;SDS011;6543;48.836;10.092;2024-03-02T07:53:04;19.77;;;11.97;;
12956;SDS011;6543;48.836;10.092;2024-03-02T07:55:34;14.10;;;11.23;;
12956;SDS011;6543;48.836;10.092;2024-03-02T07:58:01;16.67;;;13.03;;
12956;SDS011;6543;48.836;10.092;2024-03-02T08:00:28;16.80;;;12.23;;
12956;SDS011;6543;48.836;10.092;2024-03-02T08:02:55;15.23;;;11.47;;
12956;SDS011;6543;48.836;10.092;2024-03-02T08:05:22;18.03;;;11.90;;
12956;SDS011;6543;48.836;10.092;2024-03-02T08:07:48;15.93;;;11.67;;
12956;SDS011;6543;48.836;10.092;2024-03-02T08:10:17;15.23;;;11.60;;
12956;SDS011;6543;48.836;10.092;2024-03-02T08:12:46;14.37;;;11.03;;
12956;SDS011;6543;48.836;10.092;2024-03-02T08:15:13;16.83;;;12.03;;
12956;SDS011;6543;48.836;10.092;2024-03-02T08:17:40;13.90;;;10.43;;
12956;SDS011;6543;48.836;10.092;2024-03-02T08:20:10;15.63;;;11.60;;
12956;SDS011;6543;48.836;10.092;2024-03-02T08:22:38;17.93;;;12.03;;
12956;SDS011;6543;48.836;10.092;2024-03-02T08:25:05;14.13;;;11.00;;
12956;SDS011;6543;48.836;10.092;2024-03-02T08:27:32;11.67;;;9.03;;
12956;SDS011;6543;48.836;10.092;2024-03-02T08:30:01;12.87;;;10.43;;
12956;SDS011;6543;48.836;10.092;2024-03-02T08:32:31;12.63;;;9.93;;
12956;SDS011;6543;48.836;10.092;2024-03-02T08:35:00;11.23;;;8.97;;
12956;SDS011;6543;48.836;10.092;2024-03-02T08:37:26;11.30;;;9.23;;
12956;SDS011;6543;48.836;10.092;2024-03-02T08:39:53;10.67;;;8.80;;
12956;SDS011;6543;48.836;10.092;2024-03-02T08:42:20;10.73;;;9.17;;
12956;SDS011;6543;48.836;10.092;2024-03-02T08:44:48;11.37;;;9.40;;
12956;SDS011;6543;48.836;10.092;2024-03-02T08:47:16;9.90;;;8.30;;
12956;SDS011;6543;48.836;10.092;2024-03-02T08:49:43;9.93;;;8.17;;
12956;SDS011;6543;48.836;10.092;2024-03-02T08:52:10;10.57;;;8.33;;
12956;SDS011;6543;48.836;10.092;2024-03-02T08:54:37;9.17;;;8.07;;
12956;SDS011;6543;48.836;10.092;2024-03-02T08:57:04;10.90;;;8.67;;
12956;SDS011;6543;48.836;10.092;2024-03-02T08:59:32;9.70;;;8.67;;
12956;SDS011;6543;48.836;10.092;2024-03-02T09:01:59;9.17;;;8.10;;
12956;SDS011;6543;48.836;10.092;2024-03-02T09:04:28;11.03;;;7.87;;
12956;SDS011;6543;48.836;10.092;2024-03-02T09:06:58;14.37;;;8.77;;
12956;SDS011;6543;48.836;10.092;2024-03-02T09:09:25;11.10;;;8.70;;
12956;SDS011;6543;48.836;10.092;2024-03-02T09:12:15;11.30;;;8.67;;
12956;SDS011;6543;48.836;10.092;2024-03-02T09:15:17;9.40;;;7.57;;
12956;SDS011;6543;48.836;10.092;2024-03-02T09:17:59;12.13;;;8.47;;
12956;SDS011;6543;48.836;10.092;2024-03-02T09:20:30;12.63;;;8.80;;
12956;SDS011;6543;48.836;10.092;2024-03-02T09:22:59;9.33;;;7.57;;
12956;SDS011;6543;48.836;10.092;2024-03-02T09:25:28;11.10;;;8.00;;
12956;SDS011;6543;48.836;10.092;2024-03-02T09:27:56;10.40;;;8.13;;
12956;SDS011;6543;48.836;10.092;2024-03-02T09:30:40;9.17;;;7.60;;
12956;SDS011;6543;48.836;10.092;2024-03-02T09:33:11;9.20;;;7.27;;
12956;SDS011;6543;48.836;10.092;2024-03-02T09:35:59;10.73;;;8.10;;
12956;SDS011;6543;48.836;10.092;2024-03-02T09:38:35;9.70;;;6.30;;
12956;SDS011;6543;48.836;10.092;2024-03-02T09:41:05;8.20;;;7.00;;
12956;SDS011;6543;48.836;10.092;2024-03-02T09:43:33;8.20;;;6.40;;
12956;SDS011;6543;48.836;10.092;2024-03-02T09:46:00;9.83;;;7.30;;
12956;SDS011;6543;48.836;10.092;2024-03-02T09:48:45;7.03;;;6.00;;
12956;SDS011;6543;48.836;10.092;2024-03-02T09:51:17;4.63;;;4.07;;
12956;SDS011;6543;48.836;10.092;2024-03-02T09:54:01;4.10;;;3.60;;
12956;SDS011;6543;48.836;10.092;2024-03-02T09:56:55;7.87;;;5.07;;
12956;SDS011;6543;48.836;10.092;2024-03-02T09:59:47;5.57;;;4.70;;
12956;SDS011;6543;48.836;10.092;2024-03-02T10:02:22;5.33;;;4.17;;
12956;SDS011;6543;48.836;10.092;2024-03-02T10:05:08;5.33;;;3.60;;
12956;SDS011;6543;48.836;10.092;2024-03-02T10:07:38;3.40;;;3.10;;
12956;SDS011;6543;48.836;10.092;2024-03-02T10:10:14;4.40;;;3.33;;
12956;SDS011;6543;48.836;10.092;2024-03-02T10:12:53;9.07;;;4.03;;
12956;SDS011;6543;48.836;10.092;2024-03-02T10:15:37;5.87;;;3.97;;
12956;SDS011;6543;48.836;10.092;2024-03-02T10:18:14;5.50;;;3.97;;
12956;SDS011;6543;48.836;10.092;2024-03-02T10:20:54;6.47;;;4.33;;
12956;SDS011;6543;48.836;10.092;2024-03-02T10:23:23;4.07;;;3.57;;
12956;SDS011;6543;48.836;10.092;2024-03-02T10:25:51;5.07;;;4.23;;
12956;SDS011;6543;48.836;10.092;2024-03-02T10:28:21;6.20;;;5.17;;
12956;SDS011;6543;48.836;10.092;2024-03-02T10:30:51;3.50;;;3.20;;
12956;SDS011;6543;48.836;10.092;2024-03-02T10:33:20;4.50;;;3.50;;
12956;SDS011;6543;48.836;10.092;2024-03-02T10:35:47;5.47;;;3.87;;
12956;SDS011;6543;48.836;10.092;2024-03-02T10:38:16;7.33;;;4.50;;
12956;SDS011;6543;48.836;10.092;2024-03-02T10:40:50;5.60;;;4.53;;
12956;SDS011;6543;48.836;10.092;2024-03-02T10:43:20;4.97;;;4.00;;
12956;SDS011;6543;48.836;10.092;2024-03-02T10:45:48;3.50;;;3.17;;
12956;SDS011;6543;48.836;10.092;2024-03-02T10:48:16;3.77;;;3.37;;
12956;SDS011;6543;48.836;10.092;2024-03-02T10:50:44;4.23;;;3.50;;
12956;SDS011;6543;48.836;10.092;2024-03-02T10:53:11;5.57;;;3.77;;
12956;SDS011;6543;48.836;10.092;2024-03-02T10:55:38;4.23;;;3.50;;
12956;SDS011;6543;48.836;10.092;2024-03-02T10:58:10;4.20;;;3.70;;
12956;SDS011;6543;48.836;10.092;2024-03-02T11:00:44;4.33;;;3.57;;
12956;SDS011;6543;48.836;10.092;2024-03-02T11:03:12;3.33;;;2.93;;
12956;SDS011;6543;48.836;10.092;2024-03-02T11:05:44;4.27;;;2.90;;
12956;SDS011;6543;48.836;10.092;2024-03-02T11:08:14;2.70;;;2.50;;
12956;SDS011;6543;48.836;10.092;2024-03-02T11:10:50;3.37;;;2.47;;
12956;SDS011;6543;48.836;10.092;2024-03-02T11:13:22;2.80;;;2.30;;
12956;SDS011;6543;48.836;10.092;2024-03-02T11:16:04;3.40;;;2.40;;
12956;SDS011;6543;48.836;10.092;2024-03-02T11:18:38;3.60;;;2.43;;
12956;SDS011;6543;48.836;10.092;2024-03-02T11:21:06;3.43;;;1.90;;
12956;SDS011;6543;48.836;10.092;2024-03-02T11:23:35;2.63;;;1.50;;
12956;SDS011;6543;48.836;10.092;2024-03-02T11:26:19;3.07;;;1.77;;
12956;SDS011;6543;48.836;10.092;2024-03-02T11:28:51;3.60;;;1.40;;
12956;SDS011;6543;48.836;10.092;2024-03-02T11:31:19;2.03;;;1.30;;
12956;SDS011;6543;48.836;10.092;2024-03-02T11:33:48;2.70;;;1.20;;
12956;SDS011;6543;48.836;10.092;2024-03-02T11:36:18;1.00;;;0.90;;
12956;SDS011;6543;48.836;10.092;2024-03-02T11:38:45;5.07;;;1.53;;
12956;SDS011;6543;48.836;10.092;2024-03-02T11:41:13;1.50;;;1.23;;
12956;SDS011;6543;48.836;10.092;2024-03-02T11:43:40;1.97;;;1.33;;
12956;SDS011;6543;48.836;10.092;2024-03-02T11:46:10;3.47;;;1.60;;
12956;SDS011;6543;48.836;10.092;2024-03-02T11:48:40;4.57;;;1.77;;
12956;SDS011;6543;48.836;10.092;2024-03-02T11:51:14;3.87;;;2.30;;
12956;SDS011;6543;48.836;10.092;2024-03-02T11:53:46;3.53;;;2.07;;
12956;SDS011;6543;48.836;10.092;2024-03-02T11:56:15;2.17;;;2.00;;
12956;SDS011;6543;48.836;10.092;2024-03-02T11:58:43;3.77;;;2.10;;
12956;SDS011;6543;48.836;10.092;2024-03-02T12:01:17;3.40;;;1.93;;
12956;SDS011;6543;48.836;10.092;2024-03-02T12:03:56;5.47;;;1.90;;
12956;SDS011;6543;48.836;10.092;2024-03-02T12:06:28;2.13;;;1.93;;
12956;SDS011;6543;48.836;10.092;2024-03-02T12:08:58;1.80;;;1.53;;
12956;SDS011;6543;48.836;10.092;2024-03-02T12:11:25;1.37;;;1.27;;
12956;SDS011;6543;48.836;10.092;2024-03-02T12:13:54;1.97;;;1.57;;
12956;SDS011;6543;48.836;10.092;2024-03-02T12:16:25;1.80;;;1.70;;
12956;SDS011;6543;48.836;10.092;2024-03-02T12:18:55;3.60;;;1.57;;
12956;SDS011;6543;48.836;10.092;2024-03-02T12:21:23;4.07;;;1.07;;
12956;SDS011;6543;48.836;10.092;2024-03-02T12:23:50;1.50;;;1.23;;
12956;SDS011;6543;48.836;10.092;2024-03-02T12:26:17;1.13;;;1.00;;
12956;SDS011;6543;48.836;10.092;2024-03-02T12:28:49;0.80;;;0.80;;
12956;SDS011;6543;48.836;10.092;2024-03-02T12:31:17;1.10;;;1.03;;
12956;SDS011;6543;48.836;10.092;2024-03-02T12:33:52;0.97;;;0.97;;
12956;SDS011;6543;48.836;10.092;2024-03-02T12:36:23;1.77;;;1.20;;
12956;SDS011;6543;48.836;10.092;2024-03-02T12:38:56;4.13;;;1.20;;
12956;SDS011;6543;48.836;10.092;2024-03-02T12:41:23;1.03;;;1.00;;
12956;SDS011;6543;48.836;10.092;2024-03-02T12:43:53;0.97;;;0.90;;
12956;SDS011;6543;48.836;10.092;2024-03-02T12:46:25;2.53;;;1.50;;
12956;SDS011;6543;48.836;10.092;2024-03-02T12:49:08;1.20;;;1.10;;
12956;SDS011;6543;48.836;10.092;2024-03-02T12:51:37;1.47;;;1.03;;
12956;SDS011;6543;48.836;10.092;2024-03-02T12:54:09;2.87;;;1.00;;
12956;SDS011;6543;48.836;10.092;2024-03-02T12:56:37;4.60;;;1.27;;
12956;SDS011;6543;48.836;10.092;2024-03-02T12:59:05;1.97;;;1.50;;
12956;SDS011;6543;48.836;10.092;2024-03-02T13:01:32;2.23;;;2.03;;
12956;SDS011;6543;48.836;10.092;2024-03-02T13:03:58;3.27;;;2.07;;
12956;SDS011;6543;48.836;10.092;2024-03-02T13:06:27;2.27;;;1.90;;
12956;SDS011;6543;48.836;10.092;2024-03-02T13:08:55;2.07;;;1.73;;
12956;SDS011;6543;48.836;10.092;2024-03-02T13:11:24;3.13;;;1.40;;
12956;SDS011;6543;48.836;10.092;2024-03-02T13:13:51;3.67;;;1.77;;
12956;SDS011;6543;48.836;10.092;2024-03-02T13:16:19;1.47;;;1.37;;
12956;SDS011;6543;48.836;10.092;2024-03-02T13:18:51;4.20;;;1.73;;
12956;SDS011;6543;48.836;10.092;2024-03-02T13:21:22;2.00;;;1.80;;
12956;SDS011;6543;48.836;10.092;2024-03-02T13:23:51;2.90;;;1.97;;
12956;SDS011;6543;48.836;10.092;2024-03-02T13:26:25;2.43;;;2.10;;
12956;SDS011;6543;48.836;10.092;2024-03-02T13:28:55;2.10;;;1.90;;
12956;SDS011;6543;48.836;10.092;2024-03-02T13:31:23;2.70;;;2.13;;
12956;SDS011;6543;48.836;10.092;2024-03-02T13:33:50;2.07;;;1.97;;
12956;SDS011;6543;48.836;10.092;2024-03-02T13:36:21;1.53;;;1.33;;
12956;SDS011;6543;48.836;10.092;2024-03-02T13:38:54;6.53;;;1.80;;
12956;SDS011;6543;48.836;10.092;2024-03-02T13:41:23;2.20;;;2.00;;
12956;SDS011;6543;48.836;10.092;2024-03-02T13:43:52;3.27;;;1.80;;
12956;SDS011;6543;48.836;10.092;2024-03-02T13:46:26;3.23;;;2.23;;
12956;SDS011;6543;48.836;10.092;2024-03-02T13:48:54;3.40;;;2.27;;
12956;SDS011;6543;48.836;10.092;2024-03-02T13:51:28;4.40;;;2.40;;
12956;SDS011;6543;48.836;10.092;2024-03-02T13:54:11;2.20;;;2.00;;
12956;SDS011;6543;48.836;10.092;2024-03-02T13:56:42;2.53;;;2.27;;
12956;SDS011;6543;48.836;10.092;2024-03-02T13:59:27;2.70;;;2.13;;
12956;SDS011;6543;48.836;10.092;2024-03-02T14:01:57;3.87;;;3.40;;
12956;SDS011;6543;48.836;10.092;2024-03-02T14:04:34;3.80;;;3.17;;
12956;SDS011;6543;48.836;10.092;2024-03-02T14:07:14;4.87;;;3.67;;
12956;SDS011;6543;48.836;10.092;2024-03-02T14:10:01;3.50;;;3.17;;
12956;SDS011;6543;48.836;10.092;2024-03-02T14:12:42;4.30;;;3.37;;
12956;SDS011;6543;48.836;10.092;2024-03-02T14:15:14;3.90;;;3.30;;
12956;SDS011;6543;48.836;10.092;2024-03-02T14:17:45;3.30;;;3.00;;
12956;SDS011;6543;48.836;10.092;2024-03-02T14:20:12;2.90;;;2.70;;
12956;SDS011;6543;48.836;10.092;2024-03-02T14:22:39;5.67;;;3.23;;
12956;SDS011;6543;48.836;10.092;2024-03-02T14:25:07;6.30;;;3.43;;
12956;SDS011;6543;48.836;10.092;2024-03-02T14:27:34;3.23;;;2.93;;
12956;SDS011;6543;48.836;10.092;2024-03-02T14:30:02;4.00;;;2.93;;
12956;SDS011;6543;48.836;10.092;2024-03-02T14:32:30;5.20;;;3.00;;
12956;SDS011;6543;48.836;10.092;2024-03-02T14:34:57;3.50;;;3.20;;
12956;SDS011;6543;48.836;10.092;2024-03-02T14:37:24;4.63;;;3.00;;
12956;SDS011;6543;48.836;10.092;2024-03-02T14:39:59;3.73;;;3.33;;
12956;SDS011;6543;48.836;10.092;2024-03-02T14:42:30;4.17;;;3.33;;
12956;SDS011;6543;48.836;10.092;2024-03-02T14:45:11;6.13;;;3.77;;
12956;SDS011;6543;48.836;10.092;2024-03-02T14:47:39;5.97;;;4.87;;
12956;SDS011;6543;48.836;10.092;2024-03-02T14:50:06;6.53;;;4.83;;